Time;durP1;ratioP1;P1;durP2;ratioP2;P2;SDS_P1;SDS_P2;PMS_P1;PMS_P2;Temp;Humidity;BMP_temperature;BMP_pressure;BME280_temperature;BME280_humidity;BME280_pressure;Samples;Min_cycle;Max_cycle;Signal;HPM_P1;HPM_P2
2023/12/01 00:01:15;;;;;;;26.67;21.33;;;0.80;99.90;;;;;;5035414;28;20174;-76
2023/12/01 00:03:40;;;;;;;25.20;21.50;;;0.80;99.90;;;;;;5053142;28;20221;-76
2023/12/01 00:06:06;;;;;;;29.60;22.80;;;0.80;99.90;;;;;;5035898;28;20672;-76
2023/12/01 00:08:32;;;;;;;34.67;25.13;;;0.70;99.90;;;;;;5036076;28;20182;-76
2023/12/01 00:10:58;;;;;;;45.93;27.17;;;0.60;99.90;;;;;;5035517;28;20260;-76
2023/12/01 00:13:23;;;;;;;29.03;22.77;;;0.70;99.90;;;;;;5038020;28;20178;-76
2023/12/01 00:15:49;;;;;;;28.50;22.63;;;0.80;99.90;;;;;;5039759;28;20198;-76
2023/12/01 00:18:14;;;;;;;25.40;21.40;;;0.80;99.90;;;;;;5039232;28;20236;-76
2023/12/01 00:20:40;;;;;;;26.83;21.07;;;0.80;99.90;;;;;;5039381;28;20201;-76
2023/12/01 00:23:05;;;;;;;26.67;21.50;;;1.00;99.90;;;;;;5057104;28;20216;-76
2023/12/01 00:25:31;;;;;;;26.73;21.97;;;0.90;99.90;;;;;;5039198;28;20626;-76
2023/12/01 00:27:58;;;;;;;29.73;23.47;;;1.00;99.90;;;;;;5039042;28;20330;-76
2023/12/01 00:30:28;;;;;;;33.07;25.30;;;0.90;99.90;;;;;;5039185;28;20204;-76
2023/12/01 00:32:54;;;;;;;31.93;25.27;;;1.00;99.90;;;;;;5040121;28;20178;-76
2023/12/01 00:35:20;;;;;;;31.00;24.53;;;1.00;99.90;;;;;;5039195;28;20276;-76
2023/12/01 00:37:45;;;;;;;26.30;22.60;;;1.00;99.90;;;;;;5039038;28;20208;-76
2023/12/01 00:40:11;;;;;;;25.70;21.53;;;1.00;99.90;;;;;;5038894;28;20186;-76
2023/12/01 00:42:37;;;;;;;25.53;21.07;;;1.10;99.90;;;;;;5038759;28;20181;-76
2023/12/01 00:45:02;;;;;;;25.03;21.73;;;0.90;99.90;;;;;;5038726;28;20186;-76
2023/12/01 00:47:28;;;;;;;24.73;21.23;;;1.00;99.90;;;;;;5039548;28;20182;-76
2023/12/01 00:49:54;;;;;;;25.73;22.27;;;1.10;99.90;;;;;;5038597;28;20205;-76
2023/12/01 00:52:22;;;;;;;24.40;20.53;;;1.00;99.90;;;;;;5038952;28;20210;-76
2023/12/01 00:54:48;;;;;;;26.30;21.90;;;0.90;99.90;;;;;;5038578;28;20211;-76
2023/12/01 00:57:13;;;;;;;27.43;21.63;;;0.70;99.90;;;;;;5038614;28;20187;-76
2023/12/01 00:59:39;;;;;;;27.83;22.03;;;0.60;99.90;;;;;;5038846;28;20264;-76
2023/12/01 01:02:04;;;;;;;24.83;21.73;;;0.60;99.90;;;;;;5038522;28;20188;-76
2023/12/01 01:04:30;;;;;;;26.40;22.23;;;0.70;99.90;;;;;;5038428;28;20189;-76
2023/12/01 01:06:55;;;;;;;27.53;21.70;;;0.70;99.90;;;;;;5038323;28;20226;-76
2023/12/01 01:09:21;;;;;;;27.03;22.00;;;0.80;99.90;;;;;;5056449;28;20198;-76
2023/12/01 01:11:46;;;;;;;24.93;20.93;;;0.70;99.90;;;;;;5038164;28;20210;-76
2023/12/01 01:14:12;;;;;;;26.10;21.57;;;0.80;99.90;;;;;;5038251;28;20186;-76
2023/12/01 01:16:38;;;;;;;26.17;21.93;;;0.80;99.90;;;;;;5038893;28;20202;-76
2023/12/01 01:19:03;;;;;;;25.30;20.77;;;0.80;99.90;;;;;;5037985;28;20197;-76
2023/12/01 01:21:29;;;;;;;26.70;21.53;;;0.80;99.90;;;;;;5038105;28;20174;-76
2023/12/01 01:23:54;;;;;;;28.93;22.60;;;0.70;99.90;;;;;;5055030;28;20309;-76
2023/12/01 01:26:20;;;;;;;23.83;20.90;;;0.80;99.90;;;;;;5037891;28;20198;-76
2023/12/01 01:28:45;;;;;;;25.03;21.07;;;0.70;99.90;;;;;;5038030;28;20179;-76
2023/12/01 01:31:11;;;;;;;24.07;20.90;;;0.70;99.90;;;;;;5038113;28;20202;-76
2023/12/01 01:33:37;;;;;;;25.00;20.90;;;0.80;99.90;;;;;;5055719;28;20178;-77
2023/12/01 01:36:02;;;;;;;26.37;21.77;;;0.80;99.90;;;;;;5038110;28;20194;-76
2023/12/01 01:38:28;;;;;;;25.80;21.97;;;0.80;99.90;;;;;;5037633;28;20265;-76
2023/12/01 01:40:53;;;;;;;25.53;21.50;;;0.80;99.90;;;;;;5038605;28;20192;-76
2023/12/01 01:43:23;;;;;;;26.50;21.60;;;0.70;99.90;;;;;;5055782;28;20261;-76
2023/12/01 01:46:00;;;;;;;26.03;21.00;;;0.60;99.90;;;;;;5037681;28;20276;-76
2023/12/01 01:48:27;;;;;;;25.40;21.27;;;0.60;99.90;;;;;;5038095;28;20269;-77
2023/12/01 01:50:53;;;;;;;28.70;22.53;;;0.60;99.90;;;;;;5037761;28;20297;-76
2023/12/01 01:53:19;;;;;;;27.50;22.30;;;0.60;99.90;;;;;;5037385;28;20224;-76
2023/12/01 01:55:45;;;;;;;27.23;22.43;;;0.60;99.90;;;;;;5037400;28;20198;-76
2023/12/01 01:58:12;;;;;;;27.57;22.60;;;0.60;99.90;;;;;;5038172;28;20186;-76
2023/12/01 02:28:27;;;;;;;26.47;21.80;;;1.00;99.90;;;;;;858503;23;20486;-72
2023/12/01 02:30:54;;;;;;;25.93;21.77;;;0.90;99.90;;;;;;4969640;28;20225;-88
2023/12/01 02:33:21;;;;;;;25.07;21.47;;;0.90;99.90;;;;;;4971434;28;20272;-88
2023/12/01 02:35:47;;;;;;;25.13;21.83;;;1.10;99.90;;;;;;4971418;28;20786;-88
2023/12/01 02:38:13;;;;;;;27.70;22.67;;;1.10;99.90;;;;;;4971575;28;20182;-88
2023/12/01 02:40:51;;;;;;;27.03;21.03;;;1.00;99.90;;;;;;4971197;28;20212;-88
2023/12/01 02:43:18;;;;;;;26.67;21.90;;;1.00;99.90;;;;;;4971916;28;20174;-88
2023/12/01 02:45:44;;;;;;;26.73;22.13;;;0.90;99.90;;;;;;4971204;28;20211;-88
2023/12/01 02:48:10;;;;;;;27.07;22.27;;;0.90;99.90;;;;;;4971598;28;20276;-87
2023/12/01 02:50:36;;;;;;;25.17;21.80;;;0.90;99.90;;;;;;4971910;28;20216;-87
2023/12/01 02:53:03;;;;;;;29.73;23.60;;;0.80;99.90;;;;;;4971383;28;20228;-87
2023/12/01 02:55:29;;;;;;;26.93;22.30;;;0.90;99.90;;;;;;4971001;28;20209;-87
2023/12/01 02:57:55;;;;;;;26.40;22.33;;;0.90;99.90;;;;;;4971993;28;20178;-87
2023/12/01 03:00:22;;;;;;;24.90;21.53;;;0.90;99.90;;;;;;4970930;28;20228;-86
2023/12/01 03:02:50;;;;;;;25.60;22.20;;;0.90;99.90;;;;;;4971253;28;20185;-87
2023/12/01 03:05:16;;;;;;;25.87;22.43;;;0.80;99.90;;;;;;4971222;28;20193;-86
2023/12/01 03:07:41;;;;;;;26.17;22.10;;;0.80;99.90;;;;;;4971072;28;20186;-87
2023/12/01 03:10:08;;;;;;;26.13;22.43;;;0.90;99.90;;;;;;4970662;28;20236;-87
2023/12/01 03:12:34;;;;;;;29.27;22.37;;;0.90;99.90;;;;;;4971006;28;20186;-87
2023/12/01 03:15:00;;;;;;;25.60;21.93;;;0.90;99.90;;;;;;4971444;28;20197;-87
2023/12/01 03:17:26;;;;;;;26.43;22.57;;;1.00;99.90;;;;;;4954857;29;20189;-87
2023/12/01 03:19:52;;;;;;;24.73;20.97;;;1.10;99.90;;;;;;4971343;28;20209;-87
2023/12/01 03:22:19;;;;;;;25.10;22.07;;;1.20;99.90;;;;;;4971423;28;20178;-87
2023/12/01 03:24:47;;;;;;;25.03;22.03;;;1.20;99.90;;;;;;4970854;28;20184;-87
2023/12/01 03:27:16;;;;;;;30.07;21.80;;;1.10;99.90;;;;;;4970466;28;20178;-87
2023/12/01 03:29:41;;;;;;;26.07;22.30;;;1.20;99.90;;;;;;4970526;28;20217;-87
2023/12/01 03:32:07;;;;;;;27.23;22.20;;;1.30;99.90;;;;;;4970440;28;20184;-87
2023/12/01 03:34:33;;;;;;;25.17;22.47;;;1.40;99.90;;;;;;4970698;28;20209;-87
2023/12/01 03:36:59;;;;;;;26.60;22.33;;;1.20;99.90;;;;;;4970714;28;20182;-87
2023/12/01 03:39:25;;;;;;;27.70;23.40;;;1.20;99.90;;;;;;4970210;28;20178;-87
2023/12/01 03:41:51;;;;;;;26.53;22.90;;;1.20;99.90;;;;;;4970411;28;20185;-87
2023/12/01 03:44:17;;;;;;;30.00;22.87;;;1.20;99.90;;;;;;4970292;28;20301;-87
2023/12/01 03:46:43;;;;;;;25.73;22.03;;;1.30;99.90;;;;;;4969800;28;20658;-87
2023/12/01 03:49:09;;;;;;;25.47;22.33;;;1.20;99.90;;;;;;4970631;28;20538;-87
2023/12/01 03:51:36;;;;;;;26.47;22.97;;;1.30;99.90;;;;;;4970988;28;20212;-87
2023/12/01 03:54:01;;;;;;;26.73;23.03;;;1.30;99.90;;;;;;4970493;28;20180;-87
2023/12/01 03:56:27;;;;;;;26.50;22.70;;;1.30;99.90;;;;;;4970543;28;20182;-87
2023/12/01 03:58:54;;;;;;;25.63;22.00;;;1.40;99.90;;;;;;4970218;28;20181;-87
2023/12/01 04:01:21;;;;;;;26.43;22.27;;;1.40;99.90;;;;;;4970383;28;20201;-87
2023/12/01 04:03:46;;;;;;;26.03;22.57;;;1.40;99.90;;;;;;4970548;28;20217;-88
2023/12/01 04:06:12;;;;;;;26.23;22.07;;;1.30;99.90;;;;;;4970640;28;20216;-88
2023/12/01 04:08:38;;;;;;;26.60;22.57;;;1.40;99.90;;;;;;4970167;28;20187;-87
2023/12/01 04:11:04;;;;;;;25.53;22.27;;;1.40;99.90;;;;;;4969949;28;20216;-87
2023/12/01 04:13:30;;;;;;;25.73;21.73;;;1.50;99.90;;;;;;4970057;28;20228;-86
2023/12/01 04:15:55;;;;;;;27.13;22.27;;;1.50;99.90;;;;;;4970007;28;20182;-86
2023/12/01 04:18:21;;;;;;;24.97;21.23;;;1.40;99.90;;;;;;4954159;29;20645;-86
2023/12/01 04:20:47;;;;;;;28.00;22.20;;;1.30;99.90;;;;;;4970244;28;20210;-87
2023/12/01 04:23:14;;;;;;;29.67;23.60;;;1.30;99.90;;;;;;4969848;28;20200;-87
2023/12/01 04:25:46;;;;;;;25.50;22.30;;;1.30;99.90;;;;;;4970966;28;20182;-87
2023/12/01 04:28:13;;;;;;;25.73;22.17;;;1.30;99.90;;;;;;4969707;28;20181;-87
2023/12/01 04:30:39;;;;;;;28.00;22.90;;;1.40;99.90;;;;;;4969853;28;20213;-87
2023/12/01 04:33:05;;;;;;;26.47;22.80;;;1.50;99.90;;;;;;4969904;28;20178;-87
2023/12/01 04:35:33;;;;;;;27.63;22.27;;;1.30;99.90;;;;;;4969820;28;20174;-87
2023/12/01 04:38:00;;;;;;;26.53;22.63;;;1.30;99.90;;;;;;4970190;28;20209;-87
2023/12/01 04:40:29;;;;;;;26.07;22.37;;;1.20;99.90;;;;;;4954707;29;20620;-86
2023/12/01 04:42:57;;;;;;;23.90;20.80;;;1.40;99.90;;;;;;4955202;28;20225;-87
2023/12/01 04:45:26;;;;;;;26.83;22.33;;;1.40;99.90;;;;;;4970173;28;20241;-87
2023/12/01 04:47:54;;;;;;;25.63;20.73;;;1.40;99.90;;;;;;4969698;28;20213;-87
2023/12/01 04:50:22;;;;;;;28.00;23.17;;;1.40;99.90;;;;;;4970295;28;20198;-87
2023/12/01 04:52:53;;;;;;;26.30;22.47;;;1.40;99.90;;;;;;4969603;28;20174;-87
2023/12/01 04:55:20;;;;;;;27.50;21.37;;;1.40;99.90;;;;;;4969799;28;20183;-87
2023/12/01 04:57:47;;;;;;;24.47;21.43;;;1.40;99.90;;;;;;4969667;28;20182;-87
2023/12/01 05:00:21;;;;;;;26.70;22.93;;;1.50;99.90;;;;;;4955476;28;20202;-87
2023/12/01 05:03:06;;;;;;;25.90;22.30;;;1.40;99.90;;;;;;4973206;28;20177;-86
2023/12/01 05:05:34;;;;;;;27.30;22.60;;;1.30;99.90;;;;;;4973145;28;20174;-87
2023/12/01 05:08:04;;;;;;;29.80;24.00;;;1.20;99.90;;;;;;4958401;28;20184;-87
2023/12/01 05:10:31;;;;;;;28.07;22.83;;;1.30;99.90;;;;;;4972817;28;20264;-87
2023/12/01 05:13:02;;;;;;;26.37;22.70;;;1.40;99.90;;;;;;4973277;28;20189;-87
2023/12/01 05:15:30;;;;;;;27.53;23.00;;;1.40;99.90;;;;;;4973411;28;20178;-87
2023/12/01 05:17:59;;;;;;;27.30;22.73;;;1.40;99.90;;;;;;4972872;28;20178;-87
2023/12/01 05:20:27;;;;;;;25.90;21.80;;;1.40;99.90;;;;;;4958058;28;20255;-87
2023/12/01 05:22:57;;;;;;;24.33;21.27;;;1.50;99.90;;;;;;4972803;28;20181;-87
2023/12/01 05:25:25;;;;;;;26.07;22.33;;;1.50;99.90;;;;;;4973344;28;20173;-88
2023/12/01 05:27:54;;;;;;;23.97;21.37;;;1.50;99.90;;;;;;4972765;28;20193;-87
2023/12/01 05:30:23;;;;;;;26.33;21.10;;;1.50;99.90;;;;;;4958127;28;20220;-87
2023/12/01 05:32:50;;;;;;;25.00;21.20;;;1.50;99.90;;;;;;4972822;28;20252;-87
2023/12/01 05:35:16;;;;;;;24.13;20.87;;;1.60;99.90;;;;;;4972969;28;20177;-88
2023/12/01 05:37:50;;;;;;;23.73;20.43;;;1.50;99.90;;;;;;4972879;28;20185;-87
2023/12/01 05:40:23;;;;;;;25.43;21.43;;;1.50;99.90;;;;;;4972414;28;20201;-87
2023/12/01 05:42:52;;;;;;;26.37;22.13;;;1.60;99.90;;;;;;4957376;29;20619;-87
2023/12/01 05:45:18;;;;;;;27.70;23.03;;;1.60;99.90;;;;;;4972588;28;20277;-87
2023/12/01 05:47:45;;;;;;;24.37;20.77;;;1.50;99.90;;;;;;4972300;28;20189;-87
2023/12/01 05:50:25;;;;;;;25.50;21.60;;;1.50;99.90;;;;;;4957258;28;20648;-87
2023/12/01 05:52:53;;;;;;;25.20;21.40;;;1.50;99.90;;;;;;4972448;28;20220;-87
2023/12/01 05:55:20;;;;;;;26.03;22.33;;;1.60;99.90;;;;;;4972200;28;20178;-87
2023/12/01 05:58:01;;;;;;;25.83;21.70;;;1.60;99.90;;;;;;4972992;28;20224;-87
2023/12/01 06:00:30;;;;;;;25.77;20.40;;;1.60;99.90;;;;;;4972088;28;20210;-87
2023/12/01 06:02:58;;;;;;;26.27;21.20;;;1.60;99.90;;;;;;4972054;28;20186;-87
2023/12/01 06:05:24;;;;;;;24.80;20.37;;;1.50;99.90;;;;;;4972920;28;20313;-87
2023/12/01 06:07:55;;;;;;;30.40;23.13;;;1.50;99.90;;;;;;4972219;28;20177;-87
2023/12/01 06:10:22;;;;;;;29.40;22.77;;;1.60;99.90;;;;;;4972028;28;20224;-87
2023/12/01 06:12:47;;;;;;;33.23;24.77;;;1.50;99.90;;;;;;4972700;28;20272;-87
2023/12/01 06:15:16;;;;;;;29.07;23.20;;;1.40;99.90;;;;;;4972947;28;20661;-86
2023/12/01 06:17:44;;;;;;;28.83;23.10;;;1.50;99.90;;;;;;4971841;28;20181;-85
2023/12/01 06:20:18;;;;;;;34.80;25.80;;;1.50;99.90;;;;;;4971865;28;20233;-85
2023/12/01 06:22:51;;;;;;;32.00;24.77;;;1.50;99.90;;;;;;4972754;28;20185;-85
2023/12/01 06:25:18;;;;;;;29.10;24.27;;;1.50;99.90;;;;;;4956709;29;20752;-85
2023/12/01 06:27:45;;;;;;;28.87;23.53;;;1.50;99.90;;;;;;4971516;28;20182;-85
2023/12/01 06:30:12;;;;;;;26.53;23.63;;;1.50;99.90;;;;;;4971937;28;20225;-85
2023/12/01 06:32:42;;;;;;;27.43;22.70;;;1.50;99.90;;;;;;4971808;28;20178;-85
2023/12/01 06:35:13;;;;;;;25.60;22.60;;;1.50;99.90;;;;;;4971571;28;20178;-85
2023/12/01 06:37:40;;;;;;;21.87;18.73;;;1.50;99.90;;;;;;4971633;28;20181;-85
2023/12/01 06:40:13;;;;;;;19.03;16.80;;;1.40;99.90;;;;;;4971954;28;20209;-85
2023/12/01 06:42:39;;;;;;;18.93;16.20;;;1.40;99.90;;;;;;4971729;28;20642;-86
2023/12/01 06:45:06;;;;;;;18.13;15.27;;;1.40;99.90;;;;;;4956227;29;20184;-86
2023/12/01 06:47:32;;;;;;;18.43;16.13;;;1.30;99.90;;;;;;4972046;28;20242;-86
2023/12/01 06:49:57;;;;;;;18.07;15.00;;;1.30;99.90;;;;;;4971540;28;20260;-85
2023/12/01 06:52:23;;;;;;;16.93;14.73;;;1.30;99.90;;;;;;4971231;28;20320;-86
2023/12/01 06:54:48;;;;;;;17.17;14.67;;;1.30;99.90;;;;;;4971327;28;20181;-86
2023/12/01 06:57:14;;;;;;;16.07;13.60;;;1.30;99.90;;;;;;4971342;28;20251;-85
2023/12/01 06:59:39;;;;;;;17.37;15.13;;;1.20;99.90;;;;;;4972129;28;20186;-86
2023/12/01 07:02:05;;;;;;;17.80;14.53;;;1.20;99.90;;;;;;4970890;28;20189;-86
2023/12/01 07:04:32;;;;;;;17.53;14.67;;;1.20;99.90;;;;;;4971478;28;20189;-86
2023/12/01 07:07:00;;;;;;;17.90;15.23;;;1.20;99.90;;;;;;4970947;28;20217;-86
2023/12/01 07:09:27;;;;;;;21.17;17.87;;;1.20;99.90;;;;;;4970710;28;20606;-86
2023/12/01 07:11:53;;;;;;;25.53;21.23;;;1.20;99.90;;;;;;4971620;28;20282;-86
2023/12/01 07:14:19;;;;;;;23.80;20.03;;;1.20;99.90;;;;;;4971153;28;20177;-86
2023/12/01 07:16:45;;;;;;;25.67;20.87;;;1.20;99.90;;;;;;4970974;28;20205;-86
2023/12/01 07:19:11;;;;;;;20.90;18.07;;;1.20;99.90;;;;;;4954881;29;20178;-86
2023/12/01 07:21:38;;;;;;;21.20;18.33;;;1.20;99.90;;;;;;4970119;28;20208;-86
2023/12/01 07:24:06;;;;;;;17.83;15.67;;;1.20;99.90;;;;;;4955727;28;20256;-86
2023/12/01 07:26:33;;;;;;;15.87;13.53;;;1.30;99.90;;;;;;4971003;28;20244;-86
2023/12/01 07:29:04;;;;;;;17.13;13.03;;;1.20;99.90;;;;;;4970956;28;20205;-86
2023/12/01 07:31:37;;;;;;;15.07;13.47;;;1.30;99.90;;;;;;4970426;28;20248;-86
2023/12/01 07:34:03;;;;;;;16.10;13.37;;;1.30;99.90;;;;;;4970615;28;20201;-86
2023/12/01 07:36:29;;;;;;;15.37;13.47;;;1.20;99.90;;;;;;4971264;28;20182;-86
2023/12/01 07:38:54;;;;;;;16.77;12.97;;;1.20;99.90;;;;;;4971523;28;20185;-86
2023/12/01 07:41:21;;;;;;;16.63;13.70;;;1.30;99.90;;;;;;4971115;28;20217;-86
2023/12/01 07:43:52;;;;;;;15.13;13.03;;;1.20;99.90;;;;;;4970509;28;20300;-86
2023/12/01 07:46:17;;;;;;;16.23;13.20;;;1.30;99.90;;;;;;4970307;28;20181;-86
2023/12/01 07:48:43;;;;;;;15.17;12.60;;;1.30;99.90;;;;;;4970638;28;20281;-86
2023/12/01 07:51:08;;;;;;;13.80;12.30;;;1.30;99.90;;;;;;4970492;28;20666;-86
2023/12/01 07:53:34;;;;;;;14.83;13.13;;;1.40;99.90;;;;;;4970257;28;20676;-86
2023/12/01 07:55:59;;;;;;;14.93;12.47;;;1.30;99.90;;;;;;4954506;29;20182;-86
2023/12/01 07:58:25;;;;;;;15.93;12.87;;;1.30;99.90;;;;;;4970363;28;20177;-86
2023/12/01 08:00:50;;;;;;;14.13;12.63;;;1.40;99.90;;;;;;4970079;28;20203;-86
2023/12/01 08:03:16;;;;;;;18.67;14.60;;;1.40;99.90;;;;;;4970928;28;20185;-86
2023/12/01 08:05:41;;;;;;;28.00;17.57;;;1.40;99.90;;;;;;4970048;28;20224;-86
2023/12/01 08:08:08;;;;;;;20.23;16.07;;;1.40;99.90;;;;;;4955197;29;20188;-86
2023/12/01 08:10:34;;;;;;;18.20;14.63;;;1.50;99.90;;;;;;4969981;28;20224;-86
2023/12/01 08:13:00;;;;;;;17.17;14.47;;;1.50;99.90;;;;;;4970427;28;20185;-86
2023/12/01 08:15:26;;;;;;;14.27;12.73;;;1.50;99.90;;;;;;4970067;28;20189;-86
2023/12/01 08:17:51;;;;;;;14.30;12.77;;;1.50;99.90;;;;;;4970796;28;20213;-86
2023/12/01 08:20:18;;;;;;;12.87;11.40;;;1.50;99.90;;;;;;4970356;28;20711;-85
2023/12/01 08:22:46;;;;;;;14.37;12.23;;;1.50;99.90;;;;;;4970005;28;20236;-86
2023/12/01 08:25:15;;;;;;;13.13;11.60;;;1.50;99.90;;;;;;4954754;29;20574;-86
2023/12/01 08:27:41;;;;;;;12.60;10.63;;;1.60;99.90;;;;;;4970274;28;20264;-86
2023/12/01 08:30:08;;;;;;;12.77;11.30;;;1.50;99.90;;;;;;4970318;28;20272;-86
2023/12/01 08:32:33;;;;;;;12.43;11.13;;;1.60;99.90;;;;;;4970231;28;20273;-85
2023/12/01 08:34:59;;;;;;;12.20;10.90;;;1.60;99.90;;;;;;4973243;28;20213;-85
2023/12/01 08:37:25;;;;;;;11.87;10.47;;;1.60;99.90;;;;;;4973625;28;20216;-85
2023/12/01 08:39:51;;;;;;;12.60;10.97;;;1.60;99.90;;;;;;4973470;28;20201;-85
2023/12/01 08:42:19;;;;;;;13.23;11.37;;;1.60;99.90;;;;;;4973618;28;20216;-85
2023/12/01 08:44:45;;;;;;;12.20;10.90;;;1.60;99.90;;;;;;4973463;28;20277;-85
2023/12/01 08:47:17;;;;;;;13.60;11.00;;;1.60;99.90;;;;;;4974587;28;20205;-86
2023/12/01 08:49:43;;;;;;;11.67;10.47;;;1.60;99.90;;;;;;4974307;28;20220;-86
2023/12/01 08:52:08;;;;;;;12.37;10.70;;;1.70;99.90;;;;;;4973644;28;20213;-86
2023/12/01 08:54:34;;;;;;;12.07;10.53;;;1.80;99.90;;;;;;4973985;28;20216;-86
2023/12/01 08:57:00;;;;;;;13.70;11.27;;;1.80;99.90;;;;;;4973519;28;20180;-85
2023/12/01 08:59:27;;;;;;;12.23;10.93;;;1.90;99.90;;;;;;4973156;28;20193;-86
2023/12/01 09:01:52;;;;;;;11.77;10.43;;;1.90;99.90;;;;;;4957163;29;20193;-86
2023/12/01 09:04:18;;;;;;;11.33;10.13;;;1.90;99.90;;;;;;4973103;28;20185;-86
2023/12/01 09:06:43;;;;;;;11.73;10.53;;;2.00;99.90;;;;;;4973892;28;20216;-86
2023/12/01 09:09:09;;;;;;;11.93;10.63;;;1.90;99.90;;;;;;4973014;28;20189;-86
2023/12/01 09:11:35;;;;;;;11.73;10.23;;;1.90;99.90;;;;;;4972885;28;20217;-86
2023/12/01 09:14:00;;;;;;;10.77;9.67;;;2.00;99.90;;;;;;4973183;28;20178;-86
2023/12/01 09:16:26;;;;;;;12.23;10.93;;;2.10;99.90;;;;;;4957212;29;20178;-86
2023/12/01 09:18:51;;;;;;;12.40;10.87;;;2.00;99.90;;;;;;4973959;28;20174;-86
2023/12/01 09:21:17;;;;;;;10.53;9.40;;;2.00;99.90;;;;;;4972720;28;20241;-85
2023/12/01 09:23:44;;;;;;;10.03;9.03;;;2.00;99.90;;;;;;4956535;29;20244;-86
2023/12/01 09:26:17;;;;;;;12.30;9.80;;;2.00;99.90;;;;;;4956601;29;20269;-86
2023/12/01 09:28:42;;;;;;;10.63;9.53;;;2.00;99.90;;;;;;4957330;29;20194;-85
2023/12/01 09:31:10;;;;;;;10.07;9.07;;;2.00;99.90;;;;;;4957327;29;20217;-85
2023/12/01 09:33:37;;;;;;;10.30;9.10;;;2.00;99.90;;;;;;4956683;29;20185;-86
2023/12/01 09:36:03;;;;;;;11.37;9.83;;;2.00;99.90;;;;;;4956412;29;20257;-86
2023/12/01 09:38:28;;;;;;;10.80;9.67;;;2.10;99.90;;;;;;4956752;29;20178;-86
2023/12/01 09:40:54;;;;;;;10.87;9.33;;;2.10;99.90;;;;;;4956678;29;20217;-86
2023/12/01 09:43:20;;;;;;;10.33;9.23;;;2.10;99.90;;;;;;4956307;29;20181;-86
2023/12/01 09:45:45;;;;;;;11.00;9.87;;;2.00;99.90;;;;;;4956676;28;20650;-86
2023/12/01 09:48:13;;;;;;;11.13;10.03;;;2.10;99.90;;;;;;4956189;29;20321;-86
2023/12/01 09:50:39;;;;;;;11.17;9.97;;;2.10;99.90;;;;;;4956053;29;20213;-85
2023/12/01 09:53:05;;;;;;;10.47;9.40;;;2.30;99.90;;;;;;4956985;29;20185;-85
2023/12/01 09:55:33;;;;;;;12.50;10.07;;;2.30;99.90;;;;;;4956392;29;20185;-85
2023/12/01 09:57:59;;;;;;;10.67;9.57;;;2.40;99.90;;;;;;4972100;28;20181;-85
2023/12/01 10:00:25;;;;;;;11.07;9.93;;;2.40;99.90;;;;;;4955996;29;20696;-85
2023/12/01 10:02:51;;;;;;;10.40;9.30;;;2.50;99.90;;;;;;4956871;29;20631;-86
2023/12/01 10:05:20;;;;;;;9.73;8.80;;;2.60;99.90;;;;;;4955810;29;20189;-86
2023/12/01 10:07:48;;;;;;;11.53;10.10;;;2.90;99.90;;;;;;4955932;29;20181;-86
2023/12/01 10:10:21;;;;;;;12.03;10.50;;;3.10;99.90;;;;;;4971700;28;20260;-86
2023/12/01 10:13:07;;;;;;;12.13;10.83;;;3.30;99.90;;;;;;4956993;29;20181;-86
2023/12/01 10:15:37;;;;;;;10.73;9.30;;;3.20;99.90;;;;;;4972668;28;20185;-86
2023/12/01 10:18:23;;;;;;;12.50;10.50;;;3.20;99.90;;;;;;4956503;29;20265;-86
2023/12/01 10:21:07;;;;;;;11.87;9.80;;;3.20;99.90;;;;;;4972606;28;20233;-86
2023/12/01 10:23:33;;;;;;;10.83;9.73;;;3.20;99.90;;;;;;4956513;29;20209;-86
2023/12/01 10:26:00;;;;;;;11.83;10.33;;;3.10;99.90;;;;;;4955593;29;20272;-85
2023/12/01 10:28:39;;;;;;;12.23;10.60;;;3.00;99.90;;;;;;4955348;29;20194;-85
2023/12/01 10:31:05;;;;;;;12.23;10.20;;;3.00;99.90;;;;;;4971862;28;20243;-85
2023/12/01 10:33:31;;;;;;;10.10;9.00;;;3.10;99.90;;;;;;4972337;28;20583;-85
2023/12/01 10:36:08;;;;;;;11.30;10.17;;;3.10;99.90;;;;;;4955661;29;20181;-85
2023/12/01 10:38:35;;;;;;;10.17;9.07;;;3.10;99.90;;;;;;4971398;28;20170;-85
2023/12/01 10:41:05;;;;;;;9.73;8.73;;;3.10;99.90;;;;;;4956801;29;20200;-86
2023/12/01 10:43:32;;;;;;;11.73;8.70;;;3.10;99.90;;;;;;4955251;29;20181;-86
2023/12/01 10:46:05;;;;;;;10.63;9.53;;;3.30;99.90;;;;;;4955250;29;20233;-86
2023/12/01 10:48:35;;;;;;;12.73;11.37;;;3.40;99.90;;;;;;4956937;28;20240;-85
2023/12/01 10:51:10;;;;;;;14.10;12.40;;;3.40;99.90;;;;;;4956094;29;20220;-84
2023/12/01 10:53:40;;;;;;;13.37;11.60;;;3.50;99.90;;;;;;4972471;28;20208;-86
2023/12/01 10:56:13;;;;;;;11.57;10.37;;;3.50;99.90;;;;;;4972295;28;20256;-86
2023/12/01 10:58:39;;;;;;;12.00;10.60;;;3.60;99.90;;;;;;4971299;28;20170;-86
2023/12/01 11:01:05;;;;;;;11.33;10.10;;;3.50;99.90;;;;;;4971423;28;20205;-86
2023/12/01 11:03:31;;;;;;;11.03;9.93;;;3.40;99.90;;;;;;4971119;28;20239;-84
2023/12/01 11:06:04;;;;;;;12.53;11.23;;;3.40;99.90;;;;;;4954841;29;20192;-84
2023/12/01 11:09:17;;;;;;;11.47;10.27;;;3.20;99.90;;;;;;4971688;28;20185;-84
2023/12/01 11:11:58;;;;;;;10.77;9.67;;;3.20;99.90;;;;;;4958666;28;20249;-84
2023/12/01 11:14:26;;;;;;;11.67;9.93;;;3.10;99.90;;;;;;4954741;29;20166;-84
2023/12/01 11:16:52;;;;;;;10.80;9.70;;;3.10;99.90;;;;;;4955011;29;20177;-86
2023/12/01 11:19:18;;;;;;;10.30;9.13;;;3.20;99.90;;;;;;4954745;29;20169;-87
2023/12/01 11:21:44;;;;;;;10.63;9.53;;;3.20;99.90;;;;;;4954930;29;20222;-87
2023/12/01 11:24:23;;;;;;;10.43;9.33;;;3.20;99.90;;;;;;4955422;29;20232;-87
2023/12/01 11:26:51;;;;;;;9.37;8.33;;;3.30;99.90;;;;;;4954613;29;20217;-87
2023/12/01 11:29:33;;;;;;;11.60;8.67;;;3.40;99.90;;;;;;4955751;29;20198;-87
2023/12/01 11:31:58;;;;;;;10.27;9.00;;;3.30;99.90;;;;;;4954542;29;20296;-87
2023/12/01 11:34:27;;;;;;;9.80;8.80;;;3.30;99.90;;;;;;4954566;29;20313;-87
2023/12/01 11:36:53;;;;;;;8.73;7.83;;;3.40;99.90;;;;;;4955477;29;20173;-84
2023/12/01 11:39:20;;;;;;;10.83;9.40;;;3.40;99.90;;;;;;4954626;29;20178;-84
2023/12/01 11:41:58;;;;;;;10.03;9.03;;;3.40;99.90;;;;;;4954311;29;20201;-84
2023/12/01 11:44:30;;;;;;;9.73;8.13;;;3.20;99.90;;;;;;4954574;29;20191;-84
2023/12/01 11:47:00;;;;;;;9.47;8.03;;;3.30;99.90;;;;;;4955151;29;20178;-84
2023/12/01 11:49:32;;;;;;;9.23;8.17;;;3.20;99.90;;;;;;4954285;29;20181;-84
2023/12/01 11:52:05;;;;;;;9.90;8.90;;;3.20;99.90;;;;;;4954222;29;20252;-84
2023/12/01 11:54:35;;;;;;;9.37;8.37;;;3.10;99.90;;;;;;4954328;29;20178;-84
2023/12/01 11:57:02;;;;;;;9.93;8.13;;;3.10;99.90;;;;;;4955374;29;20198;-84
2023/12/01 11:59:28;;;;;;;9.57;8.57;;;3.10;99.90;;;;;;4954173;29;20177;-84
2023/12/01 12:01:55;;;;;;;10.67;9.23;;;3.10;99.90;;;;;;4954820;29;20185;-86
2023/12/01 12:04:22;;;;;;;9.57;8.43;;;3.10;99.90;;;;;;4955205;29;20169;-86
2023/12/01 12:06:49;;;;;;;10.20;8.53;;;3.00;99.90;;;;;;4954397;29;20182;-86
2023/12/01 12:09:18;;;;;;;10.27;9.03;;;3.10;99.90;;;;;;4956849;28;20207;-86
2023/12/01 12:11:45;;;;;;;10.10;8.93;;;3.10;99.90;;;;;;4959127;29;20205;-86
2023/12/01 12:14:12;;;;;;;10.83;9.53;;;3.10;99.90;;;;;;4958250;29;20227;-86
2023/12/01 12:16:37;;;;;;;9.53;8.53;;;3.10;99.90;;;;;;4958291;29;20185;-86
2023/12/01 12:19:03;;;;;;;9.80;8.80;;;3.10;99.90;;;;;;4958213;29;20201;-86
2023/12/01 12:21:29;;;;;;;9.47;8.03;;;3.10;99.90;;;;;;4958063;29;20197;-86
2023/12/01 12:23:56;;;;;;;9.27;7.90;;;3.20;99.90;;;;;;4958096;29;20181;-86
2023/12/01 12:26:26;;;;;;;9.53;8.53;;;3.20;99.90;;;;;;4957930;29;20236;-86
2023/12/01 12:28:54;;;;;;;10.77;9.10;;;3.20;99.90;;;;;;4957797;29;20193;-86
2023/12/01 12:31:20;;;;;;;9.17;8.17;;;3.10;99.90;;;;;;4957812;29;20307;-86
2023/12/01 12:33:48;;;;;;;10.10;8.33;;;2.90;99.90;;;;;;4958494;29;20186;-86
2023/12/01 12:36:14;;;;;;;10.33;8.47;;;2.90;99.90;;;;;;4957545;29;20722;-86
2023/12/01 12:38:40;;;;;;;10.13;8.23;;;2.80;99.90;;;;;;4957837;29;20268;-86
2023/12/01 12:41:24;;;;;;;9.27;8.30;;;2.80;99.90;;;;;;4957747;29;20288;-86
2023/12/01 12:43:55;;;;;;;9.50;7.87;;;2.80;99.90;;;;;;4957412;29;20191;-86
2023/12/01 12:46:22;;;;;;;9.40;8.17;;;2.80;99.90;;;;;;4957400;29;20713;-86
2023/12/01 12:48:48;;;;;;;10.87;9.30;;;2.80;99.90;;;;;;4957468;29;20174;-86
2023/12/01 12:51:17;;;;;;;9.43;8.17;;;2.80;99.90;;;;;;4957510;29;20209;-86
2023/12/01 12:53:44;;;;;;;9.80;8.13;;;2.80;99.90;;;;;;4958137;29;20269;-86
2023/12/01 12:56:11;;;;;;;8.67;7.77;;;2.80;99.90;;;;;;4957610;29;20646;-87
2023/12/01 12:58:37;;;;;;;9.87;8.83;;;2.80;99.90;;;;;;4958239;29;20170;-84
2023/12/01 13:01:02;;;;;;;10.27;9.00;;;2.90;99.90;;;;;;4957563;29;20699;-85
2023/12/01 13:03:30;;;;;;;9.87;8.73;;;2.80;99.90;;;;;;4957509;29;20271;-85
2023/12/01 13:05:57;;;;;;;8.97;8.07;;;2.90;99.90;;;;;;4960107;29;20185;-85
2023/12/01 13:08:22;;;;;;;9.07;8.17;;;2.80;99.90;;;;;;4961128;29;20260;-84
2023/12/01 13:10:48;;;;;;;9.90;8.40;;;2.90;99.90;;;;;;4957347;29;20650;-84